Iowa Falls, Iowa
Current Conditions -  °F | °C
As of 9:55 PM on Friday 28 Nov 2014 (Local Time) from KIFA Reporting Station
Haze Haze  
Wind Chill: 16°   Ceiling: Unl
Heat Index: 24°   Visibility: 5mi
Dew Point: 22°   Wind: 8mph
Humidity: 92%   Direction: 100°E
Pressure: 29.7"   Gusts: NA
Location:  42.52°N, 93.26°W
Report Text: KIFA 290355Z AUTO 10007KT 5SM BR CLR M04/M05 A2970 RMK AO2 T10421053
Loading
Personal Weather Stations






























Interactive Weather Map New forecast layout! Learn more

10-Day Weather Forecast

Advertisements
Track Severe Weather on mobile